sensor_id;sensor_type;location;lat;lon;timestamp;pressure;altitude;pressure_sealevel;temperature;humidity
44001;BME280;29660;42.892;24.710;2022-08-21T00:04:07;96131.41;;;17.63;100.00
44001;BME280;29660;42.892;24.710;2022-08-21T00:09:09;96363.59;;;19.15;100.00
44001;BME280;29660;42.892;24.710;2022-08-21T00:14:12;96352.19;;;19.25;100.00
44001;BME280;29660;42.892;24.710;2022-08-21T00:19:15;96100.84;;;17.56;100.00
44001;BME280;29660;42.892;24.710;2022-08-21T00:24:18;96327.88;;;19.06;100.00
44001;BME280;29660;42.892;24.710;2022-08-21T00:29:20;96352.78;;;19.15;100.00
44001;BME280;29660;42.892;24.710;2022-08-21T00:34:23;96097.44;;;17.59;100.00
44001;BME280;29660;42.892;24.710;2022-08-21T00:39:25;96098.28;;;17.63;100.00
44001;BME280;29660;42.892;24.710;2022-08-21T00:44:27;96041.94;;;17.19;100.00
44001;BME280;29660;42.892;24.710;2022-08-21T00:49:29;96094.44;;;17.45;100.00
44001;BME280;29660;42.892;24.710;2022-08-21T00:54:51;96292.59;;;18.76;100.00
44001;BME280;29660;42.892;24.710;2022-08-21T00:59:56;96115.31;;;17.67;100.00
44001;BME280;29660;42.892;24.710;2022-08-21T01:05:00;96312.09;;;19.08;100.00
44001;BME280;29660;42.892;24.710;2022-08-21T01:10:03;96097.28;;;17.52;100.00
44001;BME280;29660;42.892;24.710;2022-08-21T01:15:07;96335.88;;;18.99;100.00
44001;BME280;29660;42.892;24.710;2022-08-21T01:20:11;96107.56;;;17.46;100.00
44001;BME280;29660;42.892;24.710;2022-08-21T01:25:16;96302.00;;;18.66;100.00
44001;BME280;29660;42.892;24.710;2022-08-21T01:30:22;96113.94;;;17.38;100.00
44001;BME280;29660;42.892;24.710;2022-08-21T01:35:24;96308.63;;;18.69;100.00
44001;BME280;29660;42.892;24.710;2022-08-21T01:40:27;96260.09;;;18.53;100.00
44001;BME280;29660;42.892;24.710;2022-08-21T01:45:29;96300.91;;;18.86;100.00
44001;BME280;29660;42.892;24.710;2022-08-21T01:50:32;96284.69;;;18.67;100.00
44001;BME280;29660;42.892;24.710;2022-08-21T01:55:34;95927.31;;;16.16;100.00
44001;BME280;29660;42.892;24.710;2022-08-21T02:00:36;96095.97;;;17.26;100.00
44001;BME280;29660;42.892;24.710;2022-08-21T02:05:38;96130.72;;;17.66;100.00
44001;BME280;29660;42.892;24.710;2022-08-21T02:10:40;96137.59;;;17.64;100.00
44001;BME280;29660;42.892;24.710;2022-08-21T02:15:42;96122.31;;;17.52;100.00
44001;BME280;29660;42.892;24.710;2022-08-21T02:20:47;96050.25;;;16.95;100.00
44001;BME280;29660;42.892;24.710;2022-08-21T02:25:50;96095.75;;;17.15;100.00
44001;BME280;29660;42.892;24.710;2022-08-21T02:30:52;96306.69;;;18.50;100.00
44001;BME280;29660;42.892;24.710;2022-08-21T02:35:55;96153.31;;;17.42;100.00
44001;BME280;29660;42.892;24.710;2022-08-21T02:40:58;96348.09;;;18.73;100.00
44001;BME280;29660;42.892;24.710;2022-08-21T02:46:00;96105.53;;;17.24;100.00
44001;BME280;29660;42.892;24.710;2022-08-21T02:51:12;96123.09;;;17.33;100.00
44001;BME280;29660;42.892;24.710;2022-08-21T02:56:16;96122.84;;;17.23;100.00
44001;BME280;29660;42.892;24.710;2022-08-21T03:01:18;96245.00;;;17.94;100.00
44001;BME280;29660;42.892;24.710;2022-08-21T03:06:22;96376.94;;;18.69;100.00
44001;BME280;29660;42.892;24.710;2022-08-21T03:11:24;96364.41;;;18.61;100.00
44001;BME280;29660;42.892;24.710;2022-08-21T03:16:28;96176.59;;;17.51;100.00
44001;BME280;29660;42.892;24.710;2022-08-21T03:21:35;96325.31;;;18.55;100.00
44001;BME280;29660;42.892;24.710;2022-08-21T03:26:37;96144.16;;;17.12;100.00
44001;BME280;29660;42.892;24.710;2022-08-21T03:31:39;96343.94;;;18.40;100.00
44001;BME280;29660;42.892;24.710;2022-08-21T03:36:41;96110.88;;;16.88;100.00
44001;BME280;29660;42.892;24.710;2022-08-21T03:41:43;96305.13;;;18.29;100.00
44001;BME280;29660;42.892;24.710;2022-08-21T03:46:45;96139.78;;;17.23;100.00
44001;BME280;29660;42.892;24.710;2022-08-21T03:51:47;96377.13;;;18.76;100.00
44001;BME280;29660;42.892;24.710;2022-08-21T03:56:49;96372.13;;;18.78;100.00
44001;BME280;29660;42.892;24.710;2022-08-21T04:01:56;96112.41;;;17.21;100.00
44001;BME280;29660;42.892;24.710;2022-08-21T04:06:58;96086.44;;;17.13;100.00
44001;BME280;29660;42.892;24.710;2022-08-21T04:12:00;95920.44;;;16.03;100.00
44001;BME280;29660;42.892;24.710;2022-08-21T04:17:03;96096.69;;;17.23;100.00
44001;BME280;29660;42.892;24.710;2022-08-21T04:22:05;96099.88;;;17.29;100.00
44001;BME280;29660;42.892;24.710;2022-08-21T04:27:07;96219.19;;;18.12;100.00
44001;BME280;29660;42.892;24.710;2022-08-21T04:32:09;96287.56;;;18.58;100.00
44001;BME280;29660;42.892;24.710;2022-08-21T04:37:11;96339.84;;;18.85;100.00
44001;BME280;29660;42.892;24.710;2022-08-21T04:42:13;96012.72;;;16.70;100.00
44001;BME280;29660;42.892;24.710;2022-08-21T04:47:15;96137.88;;;17.59;100.00
44001;BME280;29660;42.892;24.710;2022-08-21T04:52:21;95887.56;;;15.93;100.00
44001;BME280;29660;42.892;24.710;2022-08-21T04:57:24;96037.97;;;16.97;100.00
44001;BME280;29660;42.892;24.710;2022-08-21T05:02:35;96276.66;;;18.51;100.00
44001;BME280;29660;42.892;24.710;2022-08-21T05:07:38;96104.34;;;17.40;100.00
44001;BME280;29660;42.892;24.710;2022-08-21T05:12:43;95917.41;;;16.20;100.00
44001;BME280;29660;42.892;24.710;2022-08-21T05:17:46;96342.69;;;18.93;100.00
44001;BME280;29660;42.892;24.710;2022-08-21T05:22:53;96228.38;;;18.11;100.00
44001;BME280;29660;42.892;24.710;2022-08-21T05:27:55;96110.19;;;17.42;100.00
44001;BME280;29660;42.892;24.710;2022-08-21T05:33:01;96102.09;;;17.42;100.00
44001;BME280;29660;42.892;24.710;2022-08-21T05:38:04;96242.41;;;18.36;100.00
44001;BME280;29660;42.892;24.710;2022-08-21T05:43:06;96319.22;;;18.97;100.00
44001;BME280;29660;42.892;24.710;2022-08-21T05:48:18;96254.06;;;18.40;100.00
44001;BME280;29660;42.892;24.710;2022-08-21T05:53:22;96354.97;;;19.09;100.00
44001;BME280;29660;42.892;24.710;2022-08-21T05:58:25;96151.34;;;17.59;100.00
44001;BME280;29660;42.892;24.710;2022-08-21T06:03:30;96180.72;;;17.64;100.00
44001;BME280;29660;42.892;24.710;2022-08-21T06:08:32;96281.69;;;18.33;100.00
44001;BME280;29660;42.892;24.710;2022-08-21T06:13:36;96200.13;;;17.85;100.00
44001;BME280;29660;42.892;24.710;2022-08-21T06:18:39;96424.91;;;19.30;100.00
44001;BME280;29660;42.892;24.710;2022-08-21T06:23:42;96420.06;;;19.40;100.00
44001;BME280;29660;42.892;24.710;2022-08-21T06:28:44;95993.47;;;16.52;100.00
44001;BME280;29660;42.892;24.710;2022-08-21T06:33:47;96357.59;;;19.06;100.00
44001;BME280;29660;42.892;24.710;2022-08-21T06:38:49;96357.13;;;19.20;100.00
44001;BME280;29660;42.892;24.710;2022-08-21T06:43:53;96219.97;;;18.32;100.00
44001;BME280;29660;42.892;24.710;2022-08-21T06:48:57;96397.84;;;19.50;100.00
44001;BME280;29660;42.892;24.710;2022-08-21T06:53:59;96220.06;;;18.39;100.00
44001;BME280;29660;42.892;24.710;2022-08-21T06:59:01;96200.69;;;18.33;100.00
44001;BME280;29660;42.892;24.710;2022-08-21T07:04:03;96117.91;;;17.99;100.00
44001;BME280;29660;42.892;24.710;2022-08-21T07:09:05;96409.25;;;20.05;100.00
44001;BME280;29660;42.892;24.710;2022-08-21T07:14:08;96432.56;;;20.13;100.00
44001;BME280;29660;42.892;24.710;2022-08-21T07:19:10;96311.03;;;19.35;100.00
44001;BME280;29660;42.892;24.710;2022-08-21T07:24:12;96199.03;;;18.68;100.00
44001;BME280;29660;42.892;24.710;2022-08-21T07:29:14;96411.22;;;20.34;100.00
44001;BME280;29660;42.892;24.710;2022-08-21T07:34:16;96193.13;;;19.04;100.00
44001;BME280;29660;42.892;24.710;2022-08-21T07:39:19;96398.38;;;20.54;100.00
44001;BME280;29660;42.892;24.710;2022-08-21T07:44:21;96414.25;;;20.82;100.00
44001;BME280;29660;42.892;24.710;2022-08-21T07:49:23;96357.41;;;20.56;100.00
44001;BME280;29660;42.892;24.710;2022-08-21T07:54:25;96348.13;;;20.57;100.00
44001;BME280;29660;42.892;24.710;2022-08-21T07:59:28;96117.94;;;19.10;100.00
44001;BME280;29660;42.892;24.710;2022-08-21T08:04:30;96159.91;;;19.53;100.00
44001;BME280;29660;42.892;24.710;2022-08-21T08:09:32;96185.00;;;19.80;100.00
44001;BME280;29660;42.892;24.710;2022-08-21T08:14:35;96409.00;;;21.27;100.00
44001;BME280;29660;42.892;24.710;2022-08-21T08:19:37;96298.19;;;20.58;100.00
44001;BME280;29660;42.892;24.710;2022-08-21T08:24:39;96416.09;;;21.35;100.00
44001;BME280;29660;42.892;24.710;2022-08-21T08:29:42;96258.00;;;20.60;100.00
44001;BME280;29660;42.892;24.710;2022-08-21T08:34:44;96160.13;;;19.98;100.00
44001;BME280;29660;42.892;24.710;2022-08-21T08:39:48;96196.13;;;20.35;100.00
44001;BME280;29660;42.892;24.710;2022-08-21T08:44:57;96200.28;;;20.56;100.00
44001;BME280;29660;42.892;24.710;2022-08-21T08:50:11;96348.31;;;21.39;100.00
44001;BME280;29660;42.892;24.710;2022-08-21T08:55:23;96371.97;;;21.83;100.00
44001;BME280;29660;42.892;24.710;2022-08-21T09:00:28;96402.75;;;22.01;100.00
44001;BME280;29660;42.892;24.710;2022-08-21T09:22:28;96162.78;;;21.06;99.53
44001;BME280;29660;42.892;24.710;2022-08-21T09:27:32;96309.28;;;22.02;99.28
44001;BME280;29660;42.892;24.710;2022-08-21T09:32:36;96167.97;;;21.25;100.00
44001;BME280;29660;42.892;24.710;2022-08-21T09:38:28;96350.41;;;22.66;100.00
44001;BME280;29660;42.892;24.710;2022-08-21T09:43:31;96149.44;;;21.31;100.00
44001;BME280;29660;42.892;24.710;2022-08-21T09:48:45;96304.91;;;22.45;100.00
44001;BME280;29660;42.892;24.710;2022-08-21T09:53:55;96299.03;;;22.33;100.00
44001;BME280;29660;42.892;24.710;2022-08-21T09:58:58;96120.03;;;21.37;97.18
44001;BME280;29660;42.892;24.710;2022-08-21T10:04:08;96275.81;;;22.49;98.05
44001;BME280;29660;42.892;24.710;2022-08-21T10:09:13;96183.13;;;21.89;97.81
44001;BME280;29660;42.892;24.710;2022-08-21T10:30:08;96330.06;;;23.19;95.80
44001;BME280;29660;42.892;24.710;2022-08-21T10:35:33;96237.06;;;22.77;89.69
44001;BME280;29660;42.892;24.710;2022-08-21T10:46:07;96312.22;;;24.21;90.13
44001;BME280;29660;42.892;24.710;2022-08-21T10:51:38;96185.41;;;23.99;86.30
44001;BME280;29660;42.892;24.710;2022-08-21T10:56:43;96258.16;;;25.04;79.15
44001;BME280;29660;42.892;24.710;2022-08-21T11:02:31;96286.97;;;25.68;75.42
44001;BME280;29660;42.892;24.710;2022-08-21T11:07:30;96061.97;;;24.76;70.62
44001;BME280;29660;42.892;24.710;2022-08-21T11:12:44;96051.69;;;24.94;63.40
44001;BME280;29660;42.892;24.710;2022-08-21T11:18:04;96060.66;;;25.36;64.16
44001;BME280;29660;42.892;24.710;2022-08-21T11:23:18;96227.06;;;26.63;64.96
44001;BME280;29660;42.892;24.710;2022-08-21T11:28:31;96204.19;;;26.50;60.97
44001;BME280;29660;42.892;24.710;2022-08-21T12:00:38;96218.19;;;26.83;59.33
44001;BME280;29660;42.892;24.710;2022-08-21T12:05:44;96156.03;;;26.56;59.41
44001;BME280;29660;42.892;24.710;2022-08-21T12:11:06;96211.09;;;26.89;58.96
44001;BME280;29660;42.892;24.710;2022-08-21T12:16:15;96115.13;;;26.18;58.06
44001;BME280;29660;42.892;24.710;2022-08-21T12:26:27;95998.69;;;25.33;60.95
44001;BME280;29660;42.892;24.710;2022-08-21T12:31:29;96198.75;;;26.77;59.47
44001;BME280;29660;42.892;24.710;2022-08-21T12:37:06;96197.34;;;26.65;60.57
44001;BME280;29660;42.892;24.710;2022-08-21T12:42:19;95982.47;;;25.18;67.08
44001;BME280;29660;42.892;24.710;2022-08-21T12:47:25;96195.84;;;26.61;66.91
44001;BME280;29660;42.892;24.710;2022-08-21T12:52:48;95994.25;;;25.46;63.29
44001;BME280;29660;42.892;24.710;2022-08-21T12:57:53;96178.78;;;26.80;64.48
44001;BME280;29660;42.892;24.710;2022-08-21T13:02:55;95953.03;;;25.37;62.96
44001;BME280;29660;42.892;24.710;2022-08-21T13:07:59;96151.03;;;26.51;62.33
44001;BME280;29660;42.892;24.710;2022-08-21T13:13:12;96150.75;;;26.46;64.11
44001;BME280;29660;42.892;24.710;2022-08-21T13:18:26;96012.81;;;25.58;63.01
44001;BME280;29660;42.892;24.710;2022-08-21T13:23:31;96196.00;;;26.50;63.07
44001;BME280;29660;42.892;24.710;2022-08-21T13:28:34;96187.50;;;26.41;63.98
44001;BME280;29660;42.892;24.710;2022-08-21T13:33:40;96197.47;;;26.55;65.04
44001;BME280;29660;42.892;24.710;2022-08-21T13:38:44;96137.34;;;26.20;63.99
44001;BME280;29660;42.892;24.710;2022-08-21T13:44:04;95960.41;;;25.02;62.42
44001;BME280;29660;42.892;24.710;2022-08-21T13:49:08;95787.88;;;23.85;62.15
44001;BME280;29660;42.892;24.710;2022-08-21T13:54:29;96181.16;;;26.48;63.58
44001;BME280;29660;42.892;24.710;2022-08-21T13:59:35;95963.88;;;25.10;65.97
44001;BME280;29660;42.892;24.710;2022-08-21T14:04:50;96119.31;;;26.27;63.83
44001;BME280;29660;42.892;24.710;2022-08-21T14:09:54;95936.66;;;24.99;62.68
44001;BME280;29660;42.892;24.710;2022-08-21T14:14:57;96172.63;;;26.46;63.58
44001;BME280;29660;42.892;24.710;2022-08-21T14:20:07;96175.72;;;26.44;64.52
44001;BME280;29660;42.892;24.710;2022-08-21T14:25:13;96004.16;;;25.33;61.88
44001;BME280;29660;42.892;24.710;2022-08-21T14:30:22;95985.25;;;25.15;63.86
44001;BME280;29660;42.892;24.710;2022-08-21T14:35:28;96120.78;;;26.04;65.92
44001;BME280;29660;42.892;24.710;2022-08-21T14:40:33;96182.19;;;26.27;64.99
44001;BME280;29660;42.892;24.710;2022-08-21T14:45:35;96152.97;;;26.20;66.10
44001;BME280;29660;42.892;24.710;2022-08-21T14:50:39;96125.94;;;25.99;64.13
44001;BME280;29660;42.892;24.710;2022-08-21T14:55:42;96105.69;;;25.92;68.49
44001;BME280;29660;42.892;24.710;2022-08-21T15:01:03;96111.44;;;26.02;69.29
44001;BME280;29660;42.892;24.710;2022-08-21T15:06:07;96161.81;;;26.31;68.11
44001;BME280;29660;42.892;24.710;2022-08-21T15:11:13;96086.78;;;25.75;69.01
44001;BME280;29660;42.892;24.710;2022-08-21T15:16:21;95964.41;;;24.94;70.94
44001;BME280;29660;42.892;24.710;2022-08-21T15:21:24;96056.59;;;25.51;71.05
44001;BME280;29660;42.892;24.710;2022-08-21T15:26:26;95926.69;;;24.85;74.81
44001;BME280;29660;42.892;24.710;2022-08-21T15:31:28;95947.72;;;25.22;71.51
44001;BME280;29660;42.892;24.710;2022-08-21T15:36:30;95777.25;;;24.39;71.19
44001;BME280;29660;42.892;24.710;2022-08-21T15:41:32;95937.94;;;25.59;69.14
44001;BME280;29660;42.892;24.710;2022-08-21T15:46:34;96051.19;;;26.39;69.55
44001;BME280;29660;42.892;24.710;2022-08-21T15:51:36;96071.16;;;26.63;69.84
44001;BME280;29660;42.892;24.710;2022-08-21T15:56:40;96026.72;;;26.29;68.46
44001;BME280;29660;42.892;24.710;2022-08-21T16:01:44;96113.41;;;26.86;66.59
44001;BME280;29660;42.892;24.710;2022-08-21T16:06:47;95900.66;;;25.45;66.99
44001;BME280;29660;42.892;24.710;2022-08-21T16:11:53;95896.81;;;25.43;66.67
44001;BME280;29660;42.892;24.710;2022-08-21T16:16:56;95926.34;;;25.52;66.22
44001;BME280;29660;42.892;24.710;2022-08-21T16:21:58;96000.59;;;26.01;66.30
44001;BME280;29660;42.892;24.710;2022-08-21T16:27:01;95944.34;;;25.45;66.39
44001;BME280;29660;42.892;24.710;2022-08-21T16:32:05;95901.50;;;25.08;69.70
44001;BME280;29660;42.892;24.710;2022-08-21T16:37:07;95878.09;;;24.77;71.14
44001;BME280;29660;42.892;24.710;2022-08-21T16:42:12;95895.63;;;24.76;72.01
44001;BME280;29660;42.892;24.710;2022-08-21T16:47:16;96122.50;;;25.91;74.61
44001;BME280;29660;42.892;24.710;2022-08-21T16:52:27;96084.97;;;25.23;79.62
44001;BME280;29660;42.892;24.710;2022-08-21T16:57:29;95957.34;;;24.07;82.99
44001;BME280;29660;42.892;24.710;2022-08-21T17:02:35;95974.63;;;23.82;85.35
44001;BME280;29660;42.892;24.710;2022-08-21T17:07:38;96029.47;;;23.77;87.92
44001;BME280;29660;42.892;24.710;2022-08-21T17:12:42;96156.53;;;24.19;90.63
44001;BME280;29660;42.892;24.710;2022-08-21T17:17:45;96078.91;;;23.61;90.58
44001;BME280;29660;42.892;24.710;2022-08-21T17:22:47;96105.75;;;23.70;89.24
44001;BME280;29660;42.892;24.710;2022-08-21T17:27:50;95934.19;;;22.11;92.66
44001;BME280;29660;42.892;24.710;2022-08-21T17:32:53;96164.09;;;23.55;92.92
44001;BME280;29660;42.892;24.710;2022-08-21T17:37:57;96161.78;;;23.35;94.85
44001;BME280;29660;42.892;24.710;2022-08-21T17:42:59;95990.44;;;22.10;94.26
44001;BME280;29660;42.892;24.710;2022-08-21T17:48:02;95913.22;;;21.58;93.23
44001;BME280;29660;42.892;24.710;2022-08-21T17:53:04;96209.97;;;23.20;96.71
44001;BME280;29660;42.892;24.710;2022-08-21T17:58:08;96010.94;;;21.75;96.98
44001;BME280;29660;42.892;24.710;2022-08-21T18:03:19;96190.47;;;22.90;97.72
44001;BME280;29660;42.892;24.710;2022-08-21T18:08:22;96162.06;;;22.55;98.57
44001;BME280;29660;42.892;24.710;2022-08-21T18:13:30;96204.06;;;22.83;99.49
44001;BME280;29660;42.892;24.710;2022-08-21T18:18:40;96219.59;;;22.78;100.00
44001;BME280;29660;42.892;24.710;2022-08-21T18:23:43;95997.13;;;21.22;100.00
44001;BME280;29660;42.892;24.710;2022-08-21T18:28:46;95957.34;;;20.74;100.00
44001;BME280;29660;42.892;24.710;2022-08-21T18:33:49;95996.19;;;20.93;100.00
44001;BME280;29660;42.892;24.710;2022-08-21T18:38:59;96005.47;;;20.92;100.00
44001;BME280;29660;42.892;24.710;2022-08-21T18:44:23;96003.84;;;20.76;100.00
44001;BME280;29660;42.892;24.710;2022-08-21T18:49:28;96221.34;;;22.21;100.00
44001;BME280;29660;42.892;24.710;2022-08-21T18:54:31;95987.88;;;20.64;100.00
44001;BME280;29660;42.892;24.710;2022-08-21T18:59:33;96213.78;;;21.93;100.00
44001;BME280;29660;42.892;24.710;2022-08-21T19:04:36;96129.97;;;21.22;100.00
44001;BME280;29660;42.892;24.710;2022-08-21T19:09:50;96266.19;;;21.93;100.00
44001;BME280;29660;42.892;24.710;2022-08-21T19:15:17;96270.38;;;21.84;100.00
44001;BME280;29660;42.892;24.710;2022-08-21T19:20:26;96285.09;;;21.83;100.00
44001;BME280;29660;42.892;24.710;2022-08-21T19:25:31;96241.47;;;21.54;99.94
44001;BME280;29660;42.892;24.710;2022-08-21T19:36:29;95869.19;;;18.99;100.00
44001;BME280;29660;42.892;24.710;2022-08-21T19:41:35;96295.78;;;21.61;100.00
44001;BME280;29660;42.892;24.710;2022-08-21T19:46:42;96063.03;;;19.96;100.00
44001;BME280;29660;42.892;24.710;2022-08-21T19:51:47;96278.53;;;21.36;98.60
44001;BME280;29660;42.892;24.710;2022-08-21T19:56:51;96093.63;;;19.97;98.56
44001;BME280;29660;42.892;24.710;2022-08-21T20:01:55;96336.75;;;21.49;98.49
44001;BME280;29660;42.892;24.710;2022-08-21T20:06:57;96076.38;;;19.78;99.08
44001;BME280;29660;42.892;24.710;2022-08-21T20:12:03;96120.78;;;20.07;99.60
44001;BME280;29660;42.892;24.710;2022-08-21T20:17:11;96340.16;;;21.39;100.00
44001;BME280;29660;42.892;24.710;2022-08-21T20:22:14;96091.84;;;19.78;99.44
44001;BME280;29660;42.892;24.710;2022-08-21T20:27:22;96327.63;;;21.27;100.00
44001;BME280;29660;42.892;24.710;2022-08-21T20:32:24;96320.56;;;21.19;100.00
44001;BME280;29660;42.892;24.710;2022-08-21T20:37:27;96126.97;;;19.74;100.00
44001;BME280;29660;42.892;24.710;2022-08-21T20:42:39;96296.88;;;20.78;100.00
44001;BME280;29660;42.892;24.710;2022-08-21T20:47:43;96344.69;;;20.94;100.00
44001;BME280;29660;42.892;24.710;2022-08-21T20:52:49;96296.66;;;20.57;100.00
44001;BME280;29660;42.892;24.710;2022-08-21T20:58:01;96322.78;;;20.72;100.00
44001;BME280;29660;42.892;24.710;2022-08-21T21:03:32;96328.91;;;20.69;100.00
44001;BME280;29660;42.892;24.710;2022-08-21T21:08:49;96331.59;;;20.66;100.00
44001;BME280;29660;42.892;24.710;2022-08-21T21:14:07;96342.81;;;20.64;100.00
44001;BME280;29660;42.892;24.710;2022-08-21T21:24:35;96055.66;;;18.76;100.00
44001;BME280;29660;42.892;24.710;2022-08-21T21:29:42;96122.41;;;18.99;100.00
44001;BME280;29660;42.892;24.710;2022-08-21T21:34:47;96224.56;;;19.62;100.00
44001;BME280;29660;42.892;24.710;2022-08-21T21:40:12;96315.34;;;20.09;100.00
44001;BME280;29660;42.892;24.710;2022-08-21T21:45:24;96280.41;;;19.74;100.00
44001;BME280;29660;42.892;24.710;2022-08-21T22:01:36;96352.31;;;19.75;100.00
44001;BME280;29660;42.892;24.710;2022-08-21T22:07:31;96099.78;;;18.19;100.00
44001;BME280;29660;42.892;24.710;2022-08-21T22:12:36;96329.59;;;19.60;100.00
44001;BME280;29660;42.892;24.710;2022-08-21T22:17:49;96288.97;;;19.33;100.00
44001;BME280;29660;42.892;24.710;2022-08-21T22:22:55;96123.34;;;18.22;100.00
44001;BME280;29660;42.892;24.710;2022-08-21T22:28:07;96118.06;;;18.06;100.00
44001;BME280;29660;42.892;24.710;2022-08-21T22:33:16;96336.28;;;19.43;100.00
44001;BME280;29660;42.892;24.710;2022-08-21T22:38:29;96166.75;;;18.32;100.00
44001;BME280;29660;42.892;24.710;2022-08-21T22:43:32;96144.03;;;18.14;100.00
44001;BME280;29660;42.892;24.710;2022-08-21T22:48:49;96321.59;;;19.21;100.00
44001;BME280;29660;42.892;24.710;2022-08-21T22:53:54;96155.13;;;18.09;100.00
44001;BME280;29660;42.892;24.710;2022-08-21T22:59:00;96324.13;;;19.33;100.00
44001;BME280;29660;42.892;24.710;2022-08-21T23:04:23;96194.00;;;18.47;100.00
44001;BME280;29660;42.892;24.710;2022-08-21T23:14:37;96180.31;;;18.55;100.00
44001;BME280;29660;42.892;24.710;2022-08-21T23:19:53;96074.19;;;17.89;100.00
44001;BME280;29660;42.892;24.710;2022-08-21T23:30:20;96316.97;;;19.45;100.00
